Time,TemperatureF,DewpointF,PressureIn,WindDirection,WindDirectionDegrees,WindSpeedMPH,WindSpeedGustMPH,Humidity,HourlyPrecipIn,Conditions,Clouds,dailyrainin,SoftwareType,DateUTC
2013-10-13 00:02:00,-999.0,-99.9,30.47,West,268,1.0,5.0,-999,-99.99,,,-99.99,,2013-10-13 04:02:00,
2013-10-13 00:14:00,49.0,47.0,30.47,West,268,1.0,5.0,92,0.00,,,0.00,,2013-10-13 04:14:00,
2013-10-13 00:24:00,49.0,47.0,30.47,West,268,0.0,3.0,92,0.00,,,0.00,,2013-10-13 04:24:00,
2013-10-13 00:43:00,49.0,47.0,30.47,West,268,1.0,3.0,92,0.00,,,0.00,,2013-10-13 04:43:00,
2013-10-13 00:54:00,49.0,46.0,30.48,West,268,0.0,3.0,91,0.00,,,0.00,,2013-10-13 04:54:00,
2013-10-13 01:13:00,49.0,46.0,30.48,West,268,0.0,4.0,91,0.00,,,0.00,,2013-10-13 05:13:00,
2013-10-13 01:23:00,49.0,47.0,30.48,West,268,0.0,0.0,92,0.00,,,0.00,,2013-10-13 05:23:00,
2013-10-13 01:43:00,48.0,46.0,30.48,West,268,0.0,2.0,92,0.00,,,0.00,,2013-10-13 05:43:00,
2013-10-13 01:52:00,48.0,46.0,30.49,West,262,1.0,4.0,94,0.00,,,0.00,,2013-10-13 05:52:00,
2013-10-13 02:12:00,47.0,46.0,30.49,West,260,1.0,3.0,95,0.00,,,0.00,,2013-10-13 06:12:00,
2013-10-13 02:22:00,47.0,46.0,30.49,West,260,0.0,2.0,96,0.00,,,0.00,,2013-10-13 06:22:00,
2013-10-13 02:42:00,48.0,47.0,30.49,West,260,0.0,3.0,96,0.00,,,0.00,,2013-10-13 06:42:00,
2013-10-13 02:52:00,47.0,46.0,30.48,West,260,0.0,1.0,95,0.00,,,0.00,,2013-10-13 06:52:00,
2013-10-13 03:11:00,48.0,47.0,30.48,West,260,0.0,0.0,95,0.00,,,0.00,,2013-10-13 07:11:00,
2013-10-13 03:22:00,47.0,46.0,30.48,West,260,0.0,1.0,95,0.00,,,0.00,,2013-10-13 07:22:00,
2013-10-13 03:52:00,48.0,46.0,30.48,West,260,0.0,1.0,94,0.00,,,0.00,,2013-10-13 07:52:00,
2013-10-13 04:12:00,48.0,47.0,30.47,West,260,0.0,0.0,95,0.00,,,0.00,,2013-10-13 08:12:00,
2013-10-13 04:22:00,47.0,46.0,30.47,West,260,0.0,0.0,95,0.00,,,0.00,,2013-10-13 08:22:00,
2013-10-13 04:42:00,47.0,45.0,30.47,West,260,0.0,0.0,94,0.00,,,0.00,,2013-10-13 08:42:00,
2013-10-13 04:52:00,48.0,46.0,30.47,West,260,0.0,0.0,94,0.00,,,0.00,,2013-10-13 08:52:00,
2013-10-13 05:12:00,47.0,45.0,30.47,West,260,0.0,0.0,93,0.00,,,0.00,,2013-10-13 09:12:00,
2013-10-13 05:22:00,47.0,45.0,30.48,West,260,0.0,0.0,93,0.00,,,0.00,,2013-10-13 09:22:00,
2013-10-13 05:43:00,47.0,45.0,30.48,West,260,0.0,0.0,93,0.00,,,0.00,,2013-10-13 09:43:00,
2013-10-13 05:53:00,47.0,45.0,30.48,West,260,0.0,2.0,93,0.00,,,0.00,,2013-10-13 09:53:00,
2013-10-13 06:13:00,47.0,45.0,30.48,West,260,1.0,3.0,94,0.00,,,0.00,,2013-10-13 10:13:00,
2013-10-13 06:23:00,47.0,45.0,30.49,West,260,0.0,1.0,93,0.00,,,0.00,,2013-10-13 10:23:00,
2013-10-13 06:43:00,47.0,45.0,30.49,West,260,0.0,2.0,93,0.00,,,0.00,,2013-10-13 10:43:00,
2013-10-13 06:53:00,47.0,45.0,30.49,West,260,0.0,2.0,93,0.00,,,0.00,,2013-10-13 10:53:00,
2013-10-13 07:12:00,47.0,45.0,30.49,West,260,0.0,2.0,94,0.00,,,0.00,,2013-10-13 11:12:00,
2013-10-13 07:22:00,47.0,45.0,30.49,West,260,0.0,1.0,94,0.00,,,0.00,,2013-10-13 11:22:00,
2013-10-13 07:52:00,47.0,45.0,30.50,West,260,0.0,0.0,94,0.00,,,0.00,,2013-10-13 11:52:00,
2013-10-13 08:12:00,47.0,45.0,30.51,West,260,0.0,1.0,94,0.00,,,0.00,,2013-10-13 12:12:00,
2013-10-13 08:22:00,47.0,45.0,30.51,West,260,0.0,2.0,94,0.00,,,0.00,,2013-10-13 12:22:00,
2013-10-13 08:42:00,48.0,46.0,30.51,West,260,0.0,1.0,94,0.00,,,0.00,,2013-10-13 12:42:00,
2013-10-13 08:52:00,48.0,46.0,30.51,WSW,239,0.0,4.0,92,0.00,,,0.00,,2013-10-13 12:52:00,
2013-10-13 09:12:00,49.0,46.0,30.51,WSW,238,0.0,4.0,89,0.00,,,0.00,,2013-10-13 13:12:00,
2013-10-13 09:22:00,49.0,45.0,30.51,South,180,1.0,5.0,86,0.00,,,0.00,,2013-10-13 13:22:00,
2013-10-13 09:42:00,49.0,45.0,30.51,South,180,0.0,4.0,87,0.00,,,0.00,,2013-10-13 13:42:00,
2013-10-13 09:52:00,51.0,46.0,30.51,South,180,1.0,4.0,83,0.00,,,0.00,,2013-10-13 13:52:00,
2013-10-13 10:11:00,51.0,46.0,30.52,South,174,1.0,4.0,82,0.00,,,0.00,,2013-10-13 14:11:00,
2013-10-13 10:22:00,51.0,46.0,30.52,South,174,0.0,3.0,82,0.00,,,0.00,,2013-10-13 14:22:00,
2013-10-13 10:42:00,52.0,46.0,30.52,South,174,0.0,3.0,81,0.00,,,0.00,,2013-10-13 14:42:00,
2013-10-13 10:52:00,52.0,46.0,30.52,South,174,0.0,3.0,81,0.00,,,0.00,,2013-10-13 14:52:00,
2013-10-13 11:12:00,53.0,47.0,30.52,SSE,151,0.0,4.0,80,0.00,,,0.00,,2013-10-13 15:12:00,
2013-10-13 11:22:00,53.0,47.0,30.53,South,191,1.0,5.0,80,0.00,,,0.00,,2013-10-13 15:22:00,
2013-10-13 11:43:00,54.0,47.0,30.53,South,188,1.0,5.0,78,0.00,,,0.00,,2013-10-13 15:43:00,
2013-10-13 11:54:00,55.0,47.0,30.52,SSW,203,5.0,9.0,74,0.00,,,0.00,,2013-10-13 15:54:00,
2013-10-13 12:03:00,55.0,47.0,30.52,SSW,203,5.0,9.0,74,0.00,,,0.00,,2013-10-13 16:03:00,
2013-10-13 12:13:00,55.0,47.0,30.52,SSW,203,5.0,9.0,74,0.00,,,0.00,,2013-10-13 16:13:00,
2013-10-13 12:24:00,55.0,46.0,30.52,SE,143,4.0,8.0,72,0.00,,,0.00,,2013-10-13 16:24:00,
2013-10-13 12:43:00,54.0,46.0,30.52,SSE,166,1.0,6.0,75,0.00,,,0.00,,2013-10-13 16:43:00,
2013-10-13 12:54:00,54.0,45.0,30.52,South,189,2.0,6.0,72,0.00,,,0.00,,2013-10-13 16:54:00,
2013-10-13 13:13:00,54.0,45.0,30.51,SSW,200,1.0,4.0,72,0.00,,,0.00,,2013-10-13 17:13:00,
2013-10-13 13:22:00,55.0,46.0,30.50,South,186,2.0,6.0,71,0.00,,,0.00,,2013-10-13 17:22:00,
2013-10-13 13:52:00,56.0,46.0,30.50,SSE,167,1.0,5.0,68,0.00,,,0.00,,2013-10-13 17:52:00,
2013-10-13 14:12:00,57.0,46.0,30.50,NW,305,2.0,7.0,67,0.00,,,0.00,,2013-10-13 18:12:00,
2013-10-13 14:22:00,56.0,45.0,30.49,WNW,301,0.0,5.0,67,0.00,,,0.00,,2013-10-13 18:22:00,
2013-10-13 14:42:00,57.0,46.0,30.49,SW,233,0.0,5.0,66,0.00,,,0.00,,2013-10-13 18:42:00,
2013-10-13 14:52:00,57.0,46.0,30.49,WNW,299,2.0,6.0,67,0.00,,,0.00,,2013-10-13 18:52:00,
2013-10-13 15:11:00,56.0,46.0,30.48,West,265,2.0,8.0,69,0.00,,,0.00,,2013-10-13 19:11:00,
2013-10-13 15:22:00,56.0,47.0,30.48,WNW,287,2.0,6.0,72,0.00,,,0.00,,2013-10-13 19:22:00,
2013-10-13 15:42:00,55.0,47.0,30.48,WNW,302,1.0,6.0,75,0.00,,,0.00,,2013-10-13 19:42:00,
2013-10-13 15:52:00,55.0,46.0,30.47,WNW,299,3.0,5.0,72,0.00,,,0.00,,2013-10-13 19:52:00,
2013-10-13 16:12:00,55.0,47.0,30.47,WNW,295,1.0,4.0,73,0.00,,,0.00,,2013-10-13 20:12:00,
2013-10-13 16:22:00,55.0,47.0,30.47,WNW,292,2.0,7.0,73,0.00,,,0.00,,2013-10-13 20:22:00,
2013-10-13 16:43:00,55.0,47.0,30.47,WNW,296,1.0,8.0,75,0.00,,,0.00,,2013-10-13 20:43:00,
2013-10-13 16:52:00,55.0,47.0,30.47,WNW,289,0.0,8.0,74,0.00,,,0.00,,2013-10-13 20:52:00,
2013-10-13 17:11:00,55.0,47.0,30.47,WNW,297,2.0,7.0,73,0.00,,,0.00,,2013-10-13 21:11:00,
2013-10-13 17:22:00,56.0,47.0,30.46,WNW,296,1.0,6.0,71,0.00,,,0.00,,2013-10-13 21:22:00,
2013-10-13 17:34:00,56.0,47.0,30.46,WNW,296,1.0,6.0,71,0.00,,,0.00,,2013-10-13 21:34:00,
2013-10-13 17:44:00,56.0,47.0,30.46,WNW,296,1.0,6.0,71,0.00,,,0.00,,2013-10-13 21:44:00,
2013-10-13 17:55:00,53.0,44.0,30.46,West,276,1.0,6.0,72,0.00,,,0.00,,2013-10-13 21:55:00,
2013-10-13 18:13:00,52.0,44.0,30.46,West,272,2.0,7.0,74,0.00,,,0.00,,2013-10-13 22:13:00,
2013-10-13 18:24:00,51.0,44.0,30.46,West,271,2.0,5.0,76,0.00,,,0.00,,2013-10-13 22:24:00,
2013-10-13 18:43:00,50.0,43.0,30.46,West,265,1.0,6.0,78,0.00,,,0.00,,2013-10-13 22:43:00,
2013-10-13 18:53:00,49.0,42.0,30.46,West,262,2.0,6.0,78,0.00,,,0.00,,2013-10-13 22:53:00,
2013-10-13 19:12:00,48.0,42.0,30.47,SSW,208,3.0,7.0,79,0.00,,,0.00,,2013-10-13 23:12:00,
2013-10-13 19:22:00,48.0,42.0,30.47,SW,232,2.0,7.0,80,0.00,,,0.00,,2013-10-13 23:22:00,
2013-10-13 19:42:00,47.0,42.0,30.47,SSW,199,3.0,7.0,82,0.00,,,0.00,,2013-10-13 23:42:00,
2013-10-13 19:52:00,47.0,42.0,30.46,SSW,195,2.0,7.0,83,0.00,,,0.00,,2013-10-13 23:52:00,
2013-10-13 20:12:00,47.0,42.0,30.47,SSW,193,2.0,6.0,84,0.00,,,0.00,,2013-10-14 00:12:00,
2013-10-13 20:22:00,46.0,42.0,30.47,South,188,1.0,5.0,85,0.00,,,0.00,,2013-10-14 00:22:00,
2013-10-13 20:42:00,46.0,42.0,30.47,SSW,213,2.0,6.0,85,0.00,,,0.00,,2013-10-14 00:42:00,
2013-10-13 20:52:00,46.0,41.0,30.47,SSW,204,3.0,9.0,84,0.00,,,0.00,,2013-10-14 00:52:00,
2013-10-13 21:11:00,46.0,41.0,30.47,SSW,199,4.0,8.0,84,0.00,,,0.00,,2013-10-14 01:11:00,
2013-10-13 21:22:00,46.0,42.0,30.47,SSW,199,2.0,7.0,85,0.00,,,0.00,,2013-10-14 01:22:00,
2013-10-13 21:42:00,46.0,42.0,30.47,SSW,196,3.0,7.0,85,0.00,,,0.00,,2013-10-14 01:42:00,
2013-10-13 21:52:00,46.0,42.0,30.47,SW,231,3.0,7.0,86,0.00,,,0.00,,2013-10-14 01:52:00,
2013-10-13 22:12:00,45.0,41.0,30.47,SW,231,1.0,7.0,86,0.00,,,0.00,,2013-10-14 02:12:00,
2013-10-13 22:22:00,46.0,42.0,30.47,WSW,258,1.0,6.0,85,0.00,,,0.00,,2013-10-14 02:22:00,
2013-10-13 22:42:00,46.0,42.0,30.47,West,260,3.0,8.0,86,0.00,,,0.00,,2013-10-14 02:42:00,
2013-10-13 22:52:00,46.0,43.0,30.47,WNW,282,2.0,6.0,88,0.00,,,0.00,,2013-10-14 02:52:00,
2013-10-13 23:12:00,46.0,43.0,30.46,West,280,2.0,7.0,89,0.00,,,0.00,,2013-10-14 03:12:00,
2013-10-13 23:22:00,45.0,43.0,30.46,West,273,1.0,6.0,91,0.00,,,0.00,,2013-10-14 03:22:00,
2013-10-13 23:44:00,45.0,43.0,30.46,West,278,2.0,6.0,91,0.00,,,0.00,,2013-10-14 03:44:00,
2013-10-13 23:55:00,45.0,43.0,30.46,West,278,0.0,5.0,92,0.00,,,0.00,,2013-10-14 03:55:00,